sensor_id;sensor_type;location;lat;lon;timestamp;P1;durP1;ratioP1;P2;durP2;ratioP2
73850;SDS011;62190;51.548;5.688;2023-12-20T00:01:07;14.65;;;5.85;;
73850;SDS011;62190;51.548;5.688;2023-12-20T00:03:35;14.47;;;6.65;;
73850;SDS011;62190;51.548;5.688;2023-12-20T00:06:03;10.88;;;5.85;;
73850;SDS011;62190;51.548;5.688;2023-12-20T00:08:31;10.70;;;5.30;;
73850;SDS011;62190;51.548;5.688;2023-12-20T00:10:58;12.07;;;5.87;;
73850;SDS011;62190;51.548;5.688;2023-12-20T00:13:26;10.00;;;5.10;;
73850;SDS011;62190;51.548;5.688;2023-12-20T00:15:54;13.03;;;6.10;;
73850;SDS011;62190;51.548;5.688;2023-12-20T00:18:21;9.60;;;5.05;;
73850;SDS011;62190;51.548;5.688;2023-12-20T00:20:49;16.35;;;5.28;;
73850;SDS011;62190;51.548;5.688;2023-12-20T00:23:16;9.13;;;3.65;;
73850;SDS011;62190;51.548;5.688;2023-12-20T00:25:43;13.48;;;3.47;;
73850;SDS011;62190;51.548;5.688;2023-12-20T00:28:12;7.35;;;2.77;;
73850;SDS011;62190;51.548;5.688;2023-12-20T00:30:40;8.60;;;3.02;;
73850;SDS011;62190;51.548;5.688;2023-12-20T00:33:07;7.92;;;2.15;;
73850;SDS011;62190;51.548;5.688;2023-12-20T00:35:34;10.15;;;2.80;;
73850;SDS011;62190;51.548;5.688;2023-12-20T00:38:02;9.68;;;2.72;;
73850;SDS011;62190;51.548;5.688;2023-12-20T00:40:32;6.87;;;2.67;;
73850;SDS011;62190;51.548;5.688;2023-12-20T00:43:00;7.30;;;2.15;;
73850;SDS011;62190;51.548;5.688;2023-12-20T00:45:28;5.62;;;2.25;;
73850;SDS011;62190;51.548;5.688;2023-12-20T00:47:56;12.33;;;2.45;;
73850;SDS011;62190;51.548;5.688;2023-12-20T00:50:24;4.92;;;1.87;;
73850;SDS011;62190;51.548;5.688;2023-12-20T00:52:52;6.35;;;2.65;;
73850;SDS011;62190;51.548;5.688;2023-12-20T00:55:20;6.87;;;1.95;;
73850;SDS011;62190;51.548;5.688;2023-12-20T00:57:49;4.78;;;1.70;;
73850;SDS011;62190;51.548;5.688;2023-12-20T01:00:16;5.28;;;2.27;;
73850;SDS011;62190;51.548;5.688;2023-12-20T01:02:45;6.42;;;1.85;;
73850;SDS011;62190;51.548;5.688;2023-12-20T01:05:14;4.97;;;1.75;;
73850;SDS011;62190;51.548;5.688;2023-12-20T01:07:44;7.75;;;2.30;;
73850;SDS011;62190;51.548;5.688;2023-12-20T01:10:11;5.08;;;1.77;;
73850;SDS011;62190;51.548;5.688;2023-12-20T01:12:38;10.63;;;2.47;;
73850;SDS011;62190;51.548;5.688;2023-12-20T01:15:07;3.90;;;1.42;;
73850;SDS011;62190;51.548;5.688;2023-12-20T01:17:35;7.33;;;1.87;;
73850;SDS011;62190;51.548;5.688;2023-12-20T01:20:02;3.37;;;0.93;;
73850;SDS011;62190;51.548;5.688;2023-12-20T01:22:30;6.30;;;1.85;;
73850;SDS011;62190;51.548;5.688;2023-12-20T01:24:57;8.70;;;2.10;;
73850;SDS011;62190;51.548;5.688;2023-12-20T01:27:25;3.98;;;1.42;;
73850;SDS011;62190;51.548;5.688;2023-12-20T01:29:52;4.05;;;1.20;;
73850;SDS011;62190;51.548;5.688;2023-12-20T01:32:19;6.58;;;1.70;;
73850;SDS011;62190;51.548;5.688;2023-12-20T01:34:47;9.65;;;1.82;;
73850;SDS011;62190;51.548;5.688;2023-12-20T01:37:14;5.35;;;1.85;;
73850;SDS011;62190;51.548;5.688;2023-12-20T01:39:43;5.83;;;2.02;;
73850;SDS011;62190;51.548;5.688;2023-12-20T01:42:10;3.50;;;1.35;;
73850;SDS011;62190;51.548;5.688;2023-12-20T01:44:38;10.35;;;2.05;;
73850;SDS011;62190;51.548;5.688;2023-12-20T01:47:05;6.25;;;1.40;;
73850;SDS011;62190;51.548;5.688;2023-12-20T01:49:34;11.10;;;2.33;;
73850;SDS011;62190;51.548;5.688;2023-12-20T01:52:01;2.70;;;1.67;;
73850;SDS011;62190;51.548;5.688;2023-12-20T01:54:29;3.00;;;0.98;;
73850;SDS011;62190;51.548;5.688;2023-12-20T01:56:57;9.55;;;2.15;;
73850;SDS011;62190;51.548;5.688;2023-12-20T01:59:27;5.10;;;1.47;;
73850;SDS011;62190;51.548;5.688;2023-12-20T02:01:54;3.75;;;1.72;;
73850;SDS011;62190;51.548;5.688;2023-12-20T02:04:23;5.55;;;1.75;;
73850;SDS011;62190;51.548;5.688;2023-12-20T02:06:52;11.55;;;1.77;;
73850;SDS011;62190;51.548;5.688;2023-12-20T02:09:22;7.97;;;1.72;;
73850;SDS011;62190;51.548;5.688;2023-12-20T02:11:49;4.08;;;1.35;;
73850;SDS011;62190;51.548;5.688;2023-12-20T02:14:16;1.57;;;0.88;;
73850;SDS011;62190;51.548;5.688;2023-12-20T02:16:45;10.68;;;1.52;;
73850;SDS011;62190;51.548;5.688;2023-12-20T02:19:14;4.00;;;1.30;;
73850;SDS011;62190;51.548;5.688;2023-12-20T02:21:41;5.65;;;1.52;;
73850;SDS011;62190;51.548;5.688;2023-12-20T02:24:08;4.40;;;0.70;;
73850;SDS011;62190;51.548;5.688;2023-12-20T02:26:36;9.73;;;1.77;;
73850;SDS011;62190;51.548;5.688;2023-12-20T02:29:03;8.10;;;1.80;;
73850;SDS011;62190;51.548;5.688;2023-12-20T02:31:30;11.88;;;1.70;;
73850;SDS011;62190;51.548;5.688;2023-12-20T02:33:58;9.38;;;1.82;;
73850;SDS011;62190;51.548;5.688;2023-12-20T02:36:25;3.70;;;1.92;;
73850;SDS011;62190;51.548;5.688;2023-12-20T02:38:56;6.30;;;1.42;;
73850;SDS011;62190;51.548;5.688;2023-12-20T02:41:25;10.23;;;2.40;;
73850;SDS011;62190;51.548;5.688;2023-12-20T02:43:54;10.05;;;1.47;;
73850;SDS011;62190;51.548;5.688;2023-12-20T02:46:22;7.35;;;2.30;;
73850;SDS011;62190;51.548;5.688;2023-12-20T02:48:50;8.13;;;2.20;;
73850;SDS011;62190;51.548;5.688;2023-12-20T02:51:17;13.70;;;1.77;;
73850;SDS011;62190;51.548;5.688;2023-12-20T02:53:44;6.58;;;1.40;;
73850;SDS011;62190;51.548;5.688;2023-12-20T02:56:12;4.42;;;1.90;;
73850;SDS011;62190;51.548;5.688;2023-12-20T02:58:40;6.70;;;1.98;;
73850;SDS011;62190;51.548;5.688;2023-12-20T03:01:07;15.65;;;1.92;;
73850;SDS011;62190;51.548;5.688;2023-12-20T03:03:35;8.10;;;2.10;;
73850;SDS011;62190;51.548;5.688;2023-12-20T03:06:02;10.03;;;2.27;;
73850;SDS011;62190;51.548;5.688;2023-12-20T03:08:31;8.15;;;1.90;;
73850;SDS011;62190;51.548;5.688;2023-12-20T03:11:00;3.52;;;1.17;;
73850;SDS011;62190;51.548;5.688;2023-12-20T03:13:28;10.58;;;1.50;;
73850;SDS011;62190;51.548;5.688;2023-12-20T03:15:58;9.30;;;1.90;;
73850;SDS011;62190;51.548;5.688;2023-12-20T03:18:28;6.50;;;1.45;;
73850;SDS011;62190;51.548;5.688;2023-12-20T03:20:57;9.18;;;1.92;;
73850;SDS011;62190;51.548;5.688;2023-12-20T03:23:24;9.30;;;1.47;;
73850;SDS011;62190;51.548;5.688;2023-12-20T03:25:53;9.15;;;1.50;;
73850;SDS011;62190;51.548;5.688;2023-12-20T03:28:22;8.95;;;2.22;;
73850;SDS011;62190;51.548;5.688;2023-12-20T03:30:51;11.80;;;2.12;;
73850;SDS011;62190;51.548;5.688;2023-12-20T03:33:18;14.65;;;2.25;;
73850;SDS011;62190;51.548;5.688;2023-12-20T03:35:45;6.67;;;2.10;;
73850;SDS011;62190;51.548;5.688;2023-12-20T03:38:13;10.48;;;2.05;;
73850;SDS011;62190;51.548;5.688;2023-12-20T03:40:42;5.97;;;1.60;;
73850;SDS011;62190;51.548;5.688;2023-12-20T03:43:09;9.98;;;2.95;;
73850;SDS011;62190;51.548;5.688;2023-12-20T03:45:37;9.83;;;2.72;;
73850;SDS011;62190;51.548;5.688;2023-12-20T03:48:04;9.15;;;2.02;;
73850;SDS011;62190;51.548;5.688;2023-12-20T03:50:32;5.30;;;1.75;;
73850;SDS011;62190;51.548;5.688;2023-12-20T03:53:00;5.80;;;2.58;;
73850;SDS011;62190;51.548;5.688;2023-12-20T03:55:27;4.85;;;1.62;;
73850;SDS011;62190;51.548;5.688;2023-12-20T03:57:58;5.80;;;1.67;;
73850;SDS011;62190;51.548;5.688;2023-12-20T04:00:25;5.45;;;2.05;;
73850;SDS011;62190;51.548;5.688;2023-12-20T04:02:53;8.93;;;1.85;;
73850;SDS011;62190;51.548;5.688;2023-12-20T04:05:20;6.17;;;2.00;;
73850;SDS011;62190;51.548;5.688;2023-12-20T04:07:51;6.95;;;2.20;;
73850;SDS011;62190;51.548;5.688;2023-12-20T04:10:17;8.48;;;2.80;;
73850;SDS011;62190;51.548;5.688;2023-12-20T04:12:45;10.88;;;3.02;;
73850;SDS011;62190;51.548;5.688;2023-12-20T04:15:12;8.35;;;2.77;;
73850;SDS011;62190;51.548;5.688;2023-12-20T04:17:40;12.23;;;3.72;;
73850;SDS011;62190;51.548;5.688;2023-12-20T04:20:07;8.90;;;2.72;;
73850;SDS011;62190;51.548;5.688;2023-12-20T04:22:36;13.40;;;3.10;;
73850;SDS011;62190;51.548;5.688;2023-12-20T04:25:03;14.58;;;2.80;;
73850;SDS011;62190;51.548;5.688;2023-12-20T04:27:31;7.35;;;3.37;;
73850;SDS011;62190;51.548;5.688;2023-12-20T04:29:58;6.30;;;2.92;;
73850;SDS011;62190;51.548;5.688;2023-12-20T04:32:25;12.25;;;3.08;;
73850;SDS011;62190;51.548;5.688;2023-12-20T04:34:54;15.63;;;3.33;;
73850;SDS011;62190;51.548;5.688;2023-12-20T04:37:21;12.50;;;2.90;;
73850;SDS011;62190;51.548;5.688;2023-12-20T04:39:48;8.25;;;3.95;;
73850;SDS011;62190;51.548;5.688;2023-12-20T04:42:16;13.15;;;3.35;;
73850;SDS011;62190;51.548;5.688;2023-12-20T04:44:43;9.88;;;2.77;;
73850;SDS011;62190;51.548;5.688;2023-12-20T04:47:10;11.78;;;2.85;;
73850;SDS011;62190;51.548;5.688;2023-12-20T04:49:38;11.95;;;3.55;;
73850;SDS011;62190;51.548;5.688;2023-12-20T04:52:05;11.03;;;3.60;;
73850;SDS011;62190;51.548;5.688;2023-12-20T04:54:32;8.98;;;2.67;;
73850;SDS011;62190;51.548;5.688;2023-12-20T04:57:00;10.10;;;2.67;;
73850;SDS011;62190;51.548;5.688;2023-12-20T04:59:28;7.97;;;2.70;;
73850;SDS011;62190;51.548;5.688;2023-12-20T05:01:57;11.55;;;2.58;;
73850;SDS011;62190;51.548;5.688;2023-12-20T05:04:24;17.65;;;3.67;;
73850;SDS011;62190;51.548;5.688;2023-12-20T05:06:54;15.58;;;2.70;;
73850;SDS011;62190;51.548;5.688;2023-12-20T05:09:23;10.48;;;2.65;;
73850;SDS011;62190;51.548;5.688;2023-12-20T05:11:50;9.68;;;2.40;;
73850;SDS011;62190;51.548;5.688;2023-12-20T05:14:18;8.33;;;3.10;;
73850;SDS011;62190;51.548;5.688;2023-12-20T05:16:45;12.53;;;3.77;;
73850;SDS011;62190;51.548;5.688;2023-12-20T05:19:12;11.93;;;2.58;;
73850;SDS011;62190;51.548;5.688;2023-12-20T05:21:40;13.58;;;3.02;;
73850;SDS011;62190;51.548;5.688;2023-12-20T05:24:07;7.65;;;2.47;;
73850;SDS011;62190;51.548;5.688;2023-12-20T05:26:36;7.50;;;2.92;;
73850;SDS011;62190;51.548;5.688;2023-12-20T05:29:03;8.85;;;2.77;;
73850;SDS011;62190;51.548;5.688;2023-12-20T05:31:31;10.75;;;2.37;;
73850;SDS011;62190;51.548;5.688;2023-12-20T05:33:59;10.58;;;3.15;;
73850;SDS011;62190;51.548;5.688;2023-12-20T05:36:26;11.90;;;3.87;;
73850;SDS011;62190;51.548;5.688;2023-12-20T05:38:54;10.63;;;2.83;;
73850;SDS011;62190;51.548;5.688;2023-12-20T05:41:21;20.62;;;3.37;;
73850;SDS011;62190;51.548;5.688;2023-12-20T05:43:50;10.70;;;2.47;;
73850;SDS011;62190;51.548;5.688;2023-12-20T05:46:17;11.83;;;3.20;;
73850;SDS011;62190;51.548;5.688;2023-12-20T05:48:44;6.30;;;2.70;;
73850;SDS011;62190;51.548;5.688;2023-12-20T05:51:12;13.18;;;2.45;;
73850;SDS011;62190;51.548;5.688;2023-12-20T05:53:39;10.38;;;2.95;;
73850;SDS011;62190;51.548;5.688;2023-12-20T05:56:06;10.25;;;3.70;;
73850;SDS011;62190;51.548;5.688;2023-12-20T05:58:34;13.83;;;2.65;;
73850;SDS011;62190;51.548;5.688;2023-12-20T06:01:06;7.72;;;2.62;;
73850;SDS011;62190;51.548;5.688;2023-12-20T06:03:30;18.45;;;3.58;;
73850;SDS011;62190;51.548;5.688;2023-12-20T06:06:04;13.58;;;2.75;;
73850;SDS011;62190;51.548;5.688;2023-12-20T06:08:33;14.75;;;3.72;;
73850;SDS011;62190;51.548;5.688;2023-12-20T06:11:02;15.38;;;3.15;;
73850;SDS011;62190;51.548;5.688;2023-12-20T06:13:31;11.03;;;3.98;;
73850;SDS011;62190;51.548;5.688;2023-12-20T06:15:58;9.13;;;2.47;;
73850;SDS011;62190;51.548;5.688;2023-12-20T06:18:26;9.08;;;3.30;;
73850;SDS011;62190;51.548;5.688;2023-12-20T06:20:56;9.00;;;2.90;;
73850;SDS011;62190;51.548;5.688;2023-12-20T06:23:23;5.83;;;1.92;;
73850;SDS011;62190;51.548;5.688;2023-12-20T06:25:53;10.95;;;3.20;;
73850;SDS011;62190;51.548;5.688;2023-12-20T06:28:20;13.05;;;2.85;;
73850;SDS011;62190;51.548;5.688;2023-12-20T06:30:48;11.18;;;3.22;;
73850;SDS011;62190;51.548;5.688;2023-12-20T06:33:15;12.93;;;3.12;;
73850;SDS011;62190;51.548;5.688;2023-12-20T06:35:44;6.28;;;2.83;;
73850;SDS011;62190;51.548;5.688;2023-12-20T06:38:11;10.93;;;3.85;;
73850;SDS011;62190;51.548;5.688;2023-12-20T06:40:38;7.50;;;3.10;;
73850;SDS011;62190;51.548;5.688;2023-12-20T06:43:06;13.95;;;3.45;;
73850;SDS011;62190;51.548;5.688;2023-12-20T06:45:33;9.50;;;3.27;;
73850;SDS011;62190;51.548;5.688;2023-12-20T06:48:00;12.68;;;3.58;;
73850;SDS011;62190;51.548;5.688;2023-12-20T06:50:28;7.70;;;3.05;;
73850;SDS011;62190;51.548;5.688;2023-12-20T06:52:55;10.10;;;3.00;;
73850;SDS011;62190;51.548;5.688;2023-12-20T06:55:22;10.43;;;2.92;;
73850;SDS011;62190;51.548;5.688;2023-12-20T06:57:49;7.50;;;2.58;;
73850;SDS011;62190;51.548;5.688;2023-12-20T07:00:17;14.15;;;3.47;;
73850;SDS011;62190;51.548;5.688;2023-12-20T07:02:46;11.08;;;2.90;;
73850;SDS011;62190;51.548;5.688;2023-12-20T07:05:15;9.73;;;2.83;;
73850;SDS011;62190;51.548;5.688;2023-12-20T07:07:44;11.95;;;3.08;;
73850;SDS011;62190;51.548;5.688;2023-12-20T07:10:12;11.83;;;3.30;;
73850;SDS011;62190;51.548;5.688;2023-12-20T07:12:40;11.85;;;2.77;;
73850;SDS011;62190;51.548;5.688;2023-12-20T07:15:07;9.55;;;2.70;;
73850;SDS011;62190;51.548;5.688;2023-12-20T07:17:35;15.48;;;2.33;;
73850;SDS011;62190;51.548;5.688;2023-12-20T07:20:02;7.37;;;2.45;;
73850;SDS011;62190;51.548;5.688;2023-12-20T07:22:30;5.75;;;2.37;;
73850;SDS011;62190;51.548;5.688;2023-12-20T07:25:00;10.75;;;2.08;;
73850;SDS011;62190;51.548;5.688;2023-12-20T07:27:27;12.18;;;2.67;;
73850;SDS011;62190;51.548;5.688;2023-12-20T07:29:55;8.13;;;2.90;;
73850;SDS011;62190;51.548;5.688;2023-12-20T07:32:22;8.43;;;2.72;;
73850;SDS011;62190;51.548;5.688;2023-12-20T07:34:49;15.85;;;2.30;;
73850;SDS011;62190;51.548;5.688;2023-12-20T07:37:17;14.00;;;2.45;;
73850;SDS011;62190;51.548;5.688;2023-12-20T07:39:44;5.85;;;2.33;;
73850;SDS011;62190;51.548;5.688;2023-12-20T07:42:11;12.15;;;2.98;;
73850;SDS011;62190;51.548;5.688;2023-12-20T07:44:39;10.88;;;2.80;;
73850;SDS011;62190;51.548;5.688;2023-12-20T07:47:07;6.78;;;1.90;;
73850;SDS011;62190;51.548;5.688;2023-12-20T07:49:34;9.60;;;2.45;;
73850;SDS011;62190;51.548;5.688;2023-12-20T07:52:01;4.00;;;2.22;;
73850;SDS011;62190;51.548;5.688;2023-12-20T07:54:29;7.97;;;1.90;;
73850;SDS011;62190;51.548;5.688;2023-12-20T07:56:56;6.40;;;2.10;;
73850;SDS011;62190;51.548;5.688;2023-12-20T07:59:24;12.30;;;2.77;;
73850;SDS011;62190;51.548;5.688;2023-12-20T08:01:51;7.97;;;1.77;;
73850;SDS011;62190;51.548;5.688;2023-12-20T08:04:18;6.53;;;1.52;;
73850;SDS011;62190;51.548;5.688;2023-12-20T08:06:46;12.55;;;2.40;;
73850;SDS011;62190;51.548;5.688;2023-12-20T08:09:13;11.85;;;1.75;;
73850;SDS011;62190;51.548;5.688;2023-12-20T08:11:44;3.67;;;2.02;;
73850;SDS011;62190;51.548;5.688;2023-12-20T08:14:12;6.55;;;2.58;;
73850;SDS011;62190;51.548;5.688;2023-12-20T08:16:40;13.35;;;2.62;;
73850;SDS011;62190;51.548;5.688;2023-12-20T08:19:07;8.23;;;2.42;;
73850;SDS011;62190;51.548;5.688;2023-12-20T08:21:34;10.40;;;2.65;;
73850;SDS011;62190;51.548;5.688;2023-12-20T08:24:02;9.45;;;1.98;;
73850;SDS011;62190;51.548;5.688;2023-12-20T08:26:29;11.57;;;2.40;;
73850;SDS011;62190;51.548;5.688;2023-12-20T08:28:56;13.70;;;2.15;;
73850;SDS011;62190;51.548;5.688;2023-12-20T08:31:24;16.12;;;3.20;;
73850;SDS011;62190;51.548;5.688;2023-12-20T08:33:51;7.62;;;1.57;;
73850;SDS011;62190;51.548;5.688;2023-12-20T08:36:19;7.40;;;2.77;;
73850;SDS011;62190;51.548;5.688;2023-12-20T08:38:48;10.93;;;3.02;;
73850;SDS011;62190;51.548;5.688;2023-12-20T08:41:16;8.65;;;2.22;;
73850;SDS011;62190;51.548;5.688;2023-12-20T08:43:45;7.25;;;1.90;;
73850;SDS011;62190;51.548;5.688;2023-12-20T08:46:14;8.25;;;1.67;;
73850;SDS011;62190;51.548;5.688;2023-12-20T08:48:41;10.10;;;2.17;;
73850;SDS011;62190;51.548;5.688;2023-12-20T08:51:09;11.88;;;2.70;;
73850;SDS011;62190;51.548;5.688;2023-12-20T08:53:38;7.58;;;2.00;;
73850;SDS011;62190;51.548;5.688;2023-12-20T08:56:05;12.98;;;3.05;;
73850;SDS011;62190;51.548;5.688;2023-12-20T08:58:33;12.85;;;2.75;;
73850;SDS011;62190;51.548;5.688;2023-12-20T09:01:01;20.85;;;3.00;;
73850;SDS011;62190;51.548;5.688;2023-12-20T09:03:28;6.72;;;1.65;;
73850;SDS011;62190;51.548;5.688;2023-12-20T09:05:56;4.90;;;2.12;;
73850;SDS011;62190;51.548;5.688;2023-12-20T09:08:23;3.90;;;2.10;;
73850;SDS011;62190;51.548;5.688;2023-12-20T09:10:50;7.58;;;1.70;;
73850;SDS011;62190;51.548;5.688;2023-12-20T09:13:18;8.35;;;2.45;;
73850;SDS011;62190;51.548;5.688;2023-12-20T09:15:46;13.95;;;2.40;;
73850;SDS011;62190;51.548;5.688;2023-12-20T09:18:13;6.42;;;1.80;;
73850;SDS011;62190;51.548;5.688;2023-12-20T09:20:40;7.83;;;2.35;;
73850;SDS011;62190;51.548;5.688;2023-12-20T09:23:08;9.65;;;2.27;;
73850;SDS011;62190;51.548;5.688;2023-12-20T09:25:35;9.25;;;1.98;;
73850;SDS011;62190;51.548;5.688;2023-12-20T09:28:02;14.13;;;3.83;;
73850;SDS011;62190;51.548;5.688;2023-12-20T09:30:31;8.83;;;2.72;;
73850;SDS011;62190;51.548;5.688;2023-12-20T09:32:58;8.25;;;2.95;;
73850;SDS011;62190;51.548;5.688;2023-12-20T09:35:25;7.97;;;1.95;;
73850;SDS011;62190;51.548;5.688;2023-12-20T09:37:53;8.63;;;2.17;;
73850;SDS011;62190;51.548;5.688;2023-12-20T09:40:20;10.95;;;2.15;;
73850;SDS011;62190;51.548;5.688;2023-12-20T09:42:56;3.27;;;1.92;;
73850;SDS011;62190;51.548;5.688;2023-12-20T09:45:23;11.57;;;2.17;;
73850;SDS011;62190;51.548;5.688;2023-12-20T09:47:56;11.25;;;2.25;;
73850;SDS011;62190;51.548;5.688;2023-12-20T09:50:20;2.75;;;1.82;;
73850;SDS011;62190;51.548;5.688;2023-12-20T09:52:51;14.60;;;2.45;;
73850;SDS011;62190;51.548;5.688;2023-12-20T09:55:21;11.18;;;2.65;;
73850;SDS011;62190;51.548;5.688;2023-12-20T09:57:49;6.45;;;2.02;;
73850;SDS011;62190;51.548;5.688;2023-12-20T10:00:16;5.45;;;2.05;;
73850;SDS011;62190;51.548;5.688;2023-12-20T10:02:50;6.65;;;2.58;;
73850;SDS011;62190;51.548;5.688;2023-12-20T10:05:30;10.08;;;2.33;;
73850;SDS011;62190;51.548;5.688;2023-12-20T10:07:58;8.93;;;2.00;;
73850;SDS011;62190;51.548;5.688;2023-12-20T10:10:26;9.08;;;2.30;;
73850;SDS011;62190;51.548;5.688;2023-12-20T10:13:04;8.95;;;2.20;;
73850;SDS011;62190;51.548;5.688;2023-12-20T10:15:34;6.50;;;2.10;;
73850;SDS011;62190;51.548;5.688;2023-12-20T10:18:02;8.33;;;2.22;;
73850;SDS011;62190;51.548;5.688;2023-12-20T10:20:30;6.12;;;1.77;;
73850;SDS011;62190;51.548;5.688;2023-12-20T10:22:58;9.05;;;2.17;;
73850;SDS011;62190;51.548;5.688;2023-12-20T10:25:26;16.30;;;1.82;;
73850;SDS011;62190;51.548;5.688;2023-12-20T10:28:10;8.50;;;1.75;;
73850;SDS011;62190;51.548;5.688;2023-12-20T10:30:38;8.03;;;1.80;;
73850;SDS011;62190;51.548;5.688;2023-12-20T10:33:10;10.60;;;1.90;;
73850;SDS011;62190;51.548;5.688;2023-12-20T10:35:35;2.67;;;1.35;;
73850;SDS011;62190;51.548;5.688;2023-12-20T10:38:04;4.42;;;1.52;;
73850;SDS011;62190;51.548;5.688;2023-12-20T10:40:34;10.75;;;2.65;;
73850;SDS011;62190;51.548;5.688;2023-12-20T10:43:03;11.85;;;2.00;;
73850;SDS011;62190;51.548;5.688;2023-12-20T10:45:31;2.90;;;1.10;;
73850;SDS011;62190;51.548;5.688;2023-12-20T10:47:58;8.80;;;1.90;;
73850;SDS011;62190;51.548;5.688;2023-12-20T10:50:26;4.83;;;1.65;;
73850;SDS011;62190;51.548;5.688;2023-12-20T10:52:56;10.13;;;1.65;;
73850;SDS011;62190;51.548;5.688;2023-12-20T10:55:25;5.08;;;1.87;;
73850;SDS011;62190;51.548;5.688;2023-12-20T10:57:53;8.50;;;1.70;;
73850;SDS011;62190;51.548;5.688;2023-12-20T11:00:21;9.75;;;2.10;;
73850;SDS011;62190;51.548;5.688;2023-12-20T11:02:50;10.68;;;2.12;;
73850;SDS011;62190;51.548;5.688;2023-12-20T11:05:30;6.60;;;1.77;;
73850;SDS011;62190;51.548;5.688;2023-12-20T11:08:39;18.67;;;2.12;;
73850;SDS011;62190;51.548;5.688;2023-12-20T11:10:43;8.48;;;2.72;;
73850;SDS011;62190;51.548;5.688;2023-12-20T11:13:29;10.25;;;1.92;;
73850;SDS011;62190;51.548;5.688;2023-12-20T11:15:57;5.10;;;1.72;;
73850;SDS011;62190;51.548;5.688;2023-12-20T11:18:31;8.43;;;1.52;;
73850;SDS011;62190;51.548;5.688;2023-12-20T11:21:01;6.97;;;1.40;;
73850;SDS011;62190;51.548;5.688;2023-12-20T11:23:31;8.60;;;1.77;;
73850;SDS011;62190;51.548;5.688;2023-12-20T11:26:00;6.65;;;1.98;;
73850;SDS011;62190;51.548;5.688;2023-12-20T11:28:28;7.60;;;2.00;;
73850;SDS011;62190;51.548;5.688;2023-12-20T11:30:58;5.70;;;1.92;;
73850;SDS011;62190;51.548;5.688;2023-12-20T11:33:31;6.83;;;2.55;;
73850;SDS011;62190;51.548;5.688;2023-12-20T11:36:02;5.97;;;1.75;;
73850;SDS011;62190;51.548;5.688;2023-12-20T11:38:38;11.00;;;1.87;;
73850;SDS011;62190;51.548;5.688;2023-12-20T11:41:05;6.75;;;2.10;;
73850;SDS011;62190;51.548;5.688;2023-12-20T11:43:36;8.78;;;2.00;;
73850;SDS011;62190;51.548;5.688;2023-12-20T11:46:07;7.15;;;2.27;;
73850;SDS011;62190;51.548;5.688;2023-12-20T11:48:37;5.25;;;1.47;;
73850;SDS011;62190;51.548;5.688;2023-12-20T11:51:09;8.35;;;1.65;;
73850;SDS011;62190;51.548;5.688;2023-12-20T11:53:37;6.15;;;2.17;;
73850;SDS011;62190;51.548;5.688;2023-12-20T11:56:07;7.42;;;2.55;;
73850;SDS011;62190;51.548;5.688;2023-12-20T11:58:35;6.30;;;1.55;;
73850;SDS011;62190;51.548;5.688;2023-12-20T12:01:02;13.30;;;2.25;;
73850;SDS011;62190;51.548;5.688;2023-12-20T12:03:32;7.85;;;2.10;;
73850;SDS011;62190;51.548;5.688;2023-12-20T12:05:59;12.75;;;2.77;;
73850;SDS011;62190;51.548;5.688;2023-12-20T12:08:29;7.50;;;2.52;;
73850;SDS011;62190;51.548;5.688;2023-12-20T12:10:57;9.50;;;2.22;;
73850;SDS011;62190;51.548;5.688;2023-12-20T12:13:24;9.73;;;2.27;;
73850;SDS011;62190;51.548;5.688;2023-12-20T12:15:53;7.97;;;1.82;;
73850;SDS011;62190;51.548;5.688;2023-12-20T12:18:21;4.92;;;2.20;;
73850;SDS011;62190;51.548;5.688;2023-12-20T12:20:48;7.08;;;2.62;;
73850;SDS011;62190;51.548;5.688;2023-12-20T12:23:22;5.50;;;2.33;;
73850;SDS011;62190;51.548;5.688;2023-12-20T12:25:46;7.12;;;1.60;;
73850;SDS011;62190;51.548;5.688;2023-12-20T12:28:14;10.60;;;1.95;;
73850;SDS011;62190;51.548;5.688;2023-12-20T12:30:41;8.60;;;1.98;;
73850;SDS011;62190;51.548;5.688;2023-12-20T12:33:08;10.75;;;2.92;;
73850;SDS011;62190;51.548;5.688;2023-12-20T12:35:35;13.60;;;3.10;;
73850;SDS011;62190;51.548;5.688;2023-12-20T12:38:03;7.95;;;2.30;;
73850;SDS011;62190;51.548;5.688;2023-12-20T12:40:34;12.95;;;2.92;;
73850;SDS011;62190;51.548;5.688;2023-12-20T12:43:01;9.93;;;2.52;;
73850;SDS011;62190;51.548;5.688;2023-12-20T12:45:29;6.65;;;2.55;;
73850;SDS011;62190;51.548;5.688;2023-12-20T12:47:58;9.90;;;2.65;;
73850;SDS011;62190;51.548;5.688;2023-12-20T12:50:25;10.63;;;2.67;;
73850;SDS011;62190;51.548;5.688;2023-12-20T12:52:54;5.90;;;2.65;;
73850;SDS011;62190;51.548;5.688;2023-12-20T12:55:21;10.40;;;3.00;;
73850;SDS011;62190;51.548;5.688;2023-12-20T12:57:49;8.10;;;2.77;;
73850;SDS011;62190;51.548;5.688;2023-12-20T13:00:16;12.05;;;3.22;;
73850;SDS011;62190;51.548;5.688;2023-12-20T13:02:44;12.55;;;3.45;;
73850;SDS011;62190;51.548;5.688;2023-12-20T13:05:12;8.25;;;3.95;;
73850;SDS011;62190;51.548;5.688;2023-12-20T13:07:39;5.45;;;3.55;;
73850;SDS011;62190;51.548;5.688;2023-12-20T13:10:08;10.50;;;3.05;;
73850;SDS011;62190;51.548;5.688;2023-12-20T13:12:36;8.78;;;3.27;;
73850;SDS011;62190;51.548;5.688;2023-12-20T13:15:03;10.38;;;3.40;;
73850;SDS011;62190;51.548;5.688;2023-12-20T13:17:34;6.95;;;3.27;;
73850;SDS011;62190;51.548;5.688;2023-12-20T13:20:02;15.05;;;4.10;;
73850;SDS011;62190;51.548;5.688;2023-12-20T13:22:31;13.22;;;3.52;;
73850;SDS011;62190;51.548;5.688;2023-12-20T13:24:58;10.40;;;3.83;;
73850;SDS011;62190;51.548;5.688;2023-12-20T13:27:27;20.52;;;3.92;;
73850;SDS011;62190;51.548;5.688;2023-12-20T13:29:55;15.05;;;3.87;;
73850;SDS011;62190;51.548;5.688;2023-12-20T13:32:22;14.28;;;2.92;;
73850;SDS011;62190;51.548;5.688;2023-12-20T13:34:49;7.05;;;3.22;;
73850;SDS011;62190;51.548;5.688;2023-12-20T13:37:17;8.30;;;3.90;;
73850;SDS011;62190;51.548;5.688;2023-12-20T13:39:44;9.43;;;4.30;;
73850;SDS011;62190;51.548;5.688;2023-12-20T13:42:11;14.35;;;3.55;;
73850;SDS011;62190;51.548;5.688;2023-12-20T13:44:39;12.90;;;4.53;;
73850;SDS011;62190;51.548;5.688;2023-12-20T13:47:06;8.15;;;2.85;;
73850;SDS011;62190;51.548;5.688;2023-12-20T13:49:33;9.90;;;3.58;;
73850;SDS011;62190;51.548;5.688;2023-12-20T13:52:00;10.72;;;3.83;;
73850;SDS011;62190;51.548;5.688;2023-12-20T13:54:29;7.92;;;3.42;;
73850;SDS011;62190;51.548;5.688;2023-12-20T13:56:57;12.55;;;4.65;;
73850;SDS011;62190;51.548;5.688;2023-12-20T13:59:24;8.80;;;4.22;;
73850;SDS011;62190;51.548;5.688;2023-12-20T14:01:51;16.10;;;3.60;;
73850;SDS011;62190;51.548;5.688;2023-12-20T14:04:19;16.75;;;4.03;;
73850;SDS011;62190;51.548;5.688;2023-12-20T14:06:47;13.58;;;3.52;;
73850;SDS011;62190;51.548;5.688;2023-12-20T14:09:14;8.93;;;4.37;;
73850;SDS011;62190;51.548;5.688;2023-12-20T14:11:42;11.22;;;3.62;;
73850;SDS011;62190;51.548;5.688;2023-12-20T14:14:09;11.03;;;4.75;;
73850;SDS011;62190;51.548;5.688;2023-12-20T14:16:38;14.83;;;3.55;;
73850;SDS011;62190;51.548;5.688;2023-12-20T14:19:05;10.58;;;3.33;;
73850;SDS011;62190;51.548;5.688;2023-12-20T14:21:34;7.03;;;2.83;;
73850;SDS011;62190;51.548;5.688;2023-12-20T14:24:02;13.85;;;3.83;;
73850;SDS011;62190;51.548;5.688;2023-12-20T14:26:29;16.90;;;3.22;;
73850;SDS011;62190;51.548;5.688;2023-12-20T14:28:57;16.55;;;3.50;;
73850;SDS011;62190;51.548;5.688;2023-12-20T14:31:24;10.58;;;3.02;;
73850;SDS011;62190;51.548;5.688;2023-12-20T14:33:52;8.68;;;3.30;;
73850;SDS011;62190;51.548;5.688;2023-12-20T14:36:21;7.35;;;3.33;;
73850;SDS011;62190;51.548;5.688;2023-12-20T14:38:50;12.10;;;3.37;;
73850;SDS011;62190;51.548;5.688;2023-12-20T14:41:18;7.80;;;2.65;;
73850;SDS011;62190;51.548;5.688;2023-12-20T14:43:45;12.23;;;3.40;;
73850;SDS011;62190;51.548;5.688;2023-12-20T14:46:12;10.95;;;3.75;;
73850;SDS011;62190;51.548;5.688;2023-12-20T14:48:40;10.05;;;3.25;;